createdAt,value
2023-01-09T00:01:52.671Z,1.6
2023-01-09T00:07:43.104Z,1.1
2023-01-09T00:13:33.686Z,1.1
2023-01-09T00:19:24.577Z,1
2023-01-09T00:25:15.318Z,1.3
2023-01-09T00:31:06.898Z,1.5
2023-01-09T00:36:57.880Z,0.3
2023-01-09T00:42:48.314Z,1.2
2023-01-09T00:48:39.378Z,0.2
2023-01-09T00:54:31.058Z,1.1
2023-01-09T01:00:23.077Z,2.2
2023-01-09T01:06:14.495Z,2.1
2023-01-09T01:12:06.227Z,2
2023-01-09T01:17:58.180Z,0.8
2023-01-09T01:23:51.197Z,0.9
2023-01-09T01:29:42.575Z,1
2023-01-09T01:35:34.027Z,1.2
2023-01-09T01:41:25.916Z,1.2
2023-01-09T01:47:16.713Z,1.1
2023-01-09T01:53:07.450Z,1.6
2023-01-09T01:58:59.783Z,2.7
2023-01-09T02:04:50.738Z,2.7
2023-01-09T02:10:41.851Z,3.2
2023-01-09T02:16:32.360Z,2.5
2023-01-09T02:22:23.266Z,3.6
2023-01-09T02:28:15.770Z,2.9
2023-01-09T02:34:06.837Z,2.5
2023-01-09T02:39:57.887Z,3.6
2023-01-09T02:45:49.644Z,5.1
2023-01-09T02:51:40.657Z,4.6
2023-01-09T02:57:32.286Z,4.5
2023-01-09T03:03:23.349Z,4.3
2023-01-09T03:09:15.076Z,4.2
2023-01-09T03:15:06.218Z,3.5
2023-01-09T03:20:57.974Z,3.5
2023-01-09T03:27:07.336Z,2.7
2023-01-09T03:32:59.218Z,1.8
2023-01-09T03:38:48.293Z,2.2
2023-01-09T03:44:38.743Z,2.8
2023-01-09T03:50:29.770Z,3.1
2023-01-09T03:56:21.809Z,3.6
2023-01-09T04:02:14.162Z,2.1
2023-01-09T04:08:05.326Z,2
2023-01-09T04:13:57.383Z,3.4
2023-01-09T04:19:48.290Z,2.8
2023-01-09T04:25:38.334Z,3.7
2023-01-09T04:31:27.117Z,4.3
2023-01-09T04:37:18.344Z,5.2
2023-01-09T04:43:11.218Z,3.6
2023-01-09T04:49:01.529Z,3.9
2023-01-09T04:54:52.532Z,4.1
2023-01-09T05:00:43.533Z,4.1
2023-01-09T05:06:34.980Z,5.5
2023-01-09T05:12:25.759Z,5.7
2023-01-09T05:18:17.942Z,6
2023-01-09T05:24:09.061Z,5.5
2023-01-09T05:30:00.403Z,4.4
2023-01-09T05:35:52.024Z,4.4
2023-01-09T05:41:43.239Z,3.9
2023-01-09T05:47:34.526Z,5.8
2023-01-09T05:53:26.849Z,3.5
2023-01-09T05:59:17.965Z,4
2023-01-09T06:06:56.855Z,7.3
2023-01-09T06:13:06.237Z,6.8
2023-01-09T06:26:24.365Z,5.5
2023-01-09T06:39:36.053Z,4
2023-01-09T06:46:04.585Z,2.8
2023-01-09T06:52:58.958Z,2.4
2023-01-09T07:12:05.569Z,2.8
2023-01-09T07:18:37.813Z,2.4
2023-01-09T07:24:43.346Z,2.2
2023-01-09T07:30:36.978Z,3.9
2023-01-09T07:36:52.987Z,2.3
2023-01-09T07:42:50.130Z,3.7
2023-01-09T07:48:53.013Z,2.7
2023-01-09T07:55:02.804Z,2.8
2023-01-09T08:01:38.740Z,2.4
2023-01-09T08:07:41.953Z,3
2023-01-09T08:13:36.695Z,4
2023-01-09T08:19:51.641Z,2.6
2023-01-09T08:25:49.555Z,2.9
2023-01-09T08:32:06.785Z,3.6
2023-01-09T08:51:21.383Z,2.2
2023-01-09T08:57:29.710Z,2
2023-01-09T09:09:12.227Z,3.5
2023-01-09T09:15:17.238Z,3
2023-01-09T09:28:36.151Z,3.3
2023-01-09T09:55:36.208Z,3.7
2023-01-09T10:28:44.555Z,3
2023-01-09T10:35:24.398Z,2.1
2023-01-09T10:41:31.603Z,3.3
2023-01-09T10:47:42.058Z,2
2023-01-09T10:53:43.032Z,3.2
2023-01-09T11:00:11.653Z,3.2
2023-01-09T11:06:41.474Z,7.3
2023-01-09T11:19:28.354Z,3.2
2023-01-09T11:46:03.870Z,2.1
2023-01-09T12:32:56.896Z,2.2
2023-01-09T12:38:55.974Z,2.3
2023-01-09T12:44:47.874Z,2.4
2023-01-09T12:50:39.928Z,1.8
2023-01-09T13:03:32.898Z,1
2023-01-09T13:09:22.673Z,1
2023-01-09T13:15:13.582Z,0.9
2023-01-09T13:22:16.345Z,0.7
2023-01-09T13:28:06.843Z,1.2
2023-01-09T13:33:57.639Z,0.9
2023-01-09T13:39:50.093Z,1.5
2023-01-09T13:45:41.228Z,2
2023-01-09T13:51:33.285Z,2
2023-01-09T13:57:24.639Z,2.3
2023-01-09T14:03:16.628Z,3.7
2023-01-09T14:16:08.815Z,2.3
2023-01-09T14:28:56.617Z,4.8
2023-01-09T14:34:45.953Z,4.4
2023-01-09T14:45:15.061Z,5.4
2023-01-09T14:51:04.498Z,5.7
2023-01-09T14:56:57.103Z,2.8
2023-01-09T15:02:49.203Z,3.5
2023-01-09T15:09:51.851Z,4.8
2023-01-09T15:15:41.755Z,3.9
2023-01-09T15:21:32.490Z,3.9
2023-01-09T15:27:23.042Z,3.6
2023-01-09T15:33:14.009Z,4.2
2023-01-09T15:39:05.084Z,5
2023-01-09T15:44:55.487Z,3.5
2023-01-09T15:50:45.628Z,3.3
2023-01-09T15:56:36.701Z,2.1
2023-01-09T16:02:27.591Z,2.6
2023-01-09T16:10:35.996Z,3.2
2023-01-09T16:16:25.290Z,3
2023-01-09T16:22:14.993Z,4.9
2023-01-09T16:28:11.939Z,5.9
2023-01-09T16:34:03.528Z,3.7
2023-01-09T16:39:54.307Z,6.5
2023-01-09T16:45:47.765Z,3.7
2023-01-09T17:00:53.950Z,5.9
2023-01-09T17:06:41.481Z,6.3
2023-01-09T17:12:32.886Z,6.5
2023-01-09T17:18:24.676Z,4.4
2023-01-09T17:24:15.552Z,5.9
2023-01-09T17:30:22.962Z,7.6
2023-01-09T17:36:12.440Z,6.8
2023-01-09T17:42:03.057Z,5.5
2023-01-09T17:47:53.130Z,7.5
2023-01-09T17:58:19.657Z,7.5
2023-01-09T18:04:08.001Z,10
2023-01-09T18:09:58.123Z,8
2023-01-09T18:15:48.795Z,8.3
2023-01-09T18:22:51.085Z,8.7
2023-01-09T18:29:49.105Z,10.6
2023-01-09T18:35:38.229Z,8.2
2023-01-09T18:42:40.714Z,7.4
2023-01-09T18:48:29.965Z,8.1
2023-01-09T18:54:19.434Z,9.2
2023-01-09T19:00:10.082Z,8.7
2023-01-09T19:06:00.651Z,6.7
2023-01-09T19:11:51.256Z,8
2023-01-09T19:17:41.609Z,9.3
2023-01-09T19:23:32.128Z,7.8
2023-01-09T19:29:23.382Z,8.1
2023-01-09T19:35:14.391Z,7.4
2023-01-09T19:41:04.328Z,8.4
2023-01-09T19:46:54.737Z,6.9
2023-01-09T19:52:45.368Z,6.3
2023-01-09T19:58:36.103Z,6.3
2023-01-09T20:04:27.603Z,6.4
2023-01-09T20:10:17.992Z,6.9
2023-01-09T20:16:09.887Z,8.4
2023-01-09T20:21:59.955Z,8.5
2023-01-09T20:27:50.977Z,8.2
2023-01-09T20:33:42.199Z,4.8
2023-01-09T20:39:32.990Z,5.6
2023-01-09T20:45:23.807Z,4.9
2023-01-09T20:52:22.787Z,5.6
2023-01-09T20:58:13.190Z,5.5
2023-01-09T21:04:04.484Z,6.4
2023-01-09T21:09:54.525Z,5.4
2023-01-09T21:15:45.145Z,5.7
2023-01-09T21:21:35.703Z,4.9
2023-01-09T21:29:43.425Z,4.8
2023-01-09T21:35:31.731Z,6.7
2023-01-09T21:41:22.631Z,5.9
2023-01-09T21:47:14.023Z,6
2023-01-09T21:53:04.750Z,5.7
2023-01-09T21:58:55.922Z,5.5
2023-01-09T22:04:49.303Z,6.6
2023-01-09T22:10:40.007Z,5.3
2023-01-09T22:16:31.150Z,7.1
2023-01-09T22:22:21.589Z,6
2023-01-09T22:28:11.525Z,5.9
2023-01-09T22:35:11.647Z,7.6
2023-01-09T22:43:22.547Z,9.2
2023-01-09T22:49:10.972Z,10.8
2023-01-09T22:55:01.145Z,20.3
2023-01-09T23:00:51.760Z,8.4
2023-01-09T23:06:42.411Z,7.7
2023-01-09T23:12:40.728Z,7.2
2023-01-09T23:19:00.167Z,8.6
2023-01-09T23:26:23.100Z,6.1
2023-01-09T23:32:54.197Z,7.1
2023-01-09T23:39:17.205Z,5.7
2023-01-09T23:45:21.579Z,7.1
2023-01-09T23:51:32.173Z,5.5
2023-01-09T23:57:27.504Z,5.7
